sensor_id;sensor_type;location;lat;lon;timestamp;P1;durP1;ratioP1;P2;durP2;ratioP2
48621;SDS011;34421;48.944;9.460;2024-03-02T00:02:06;7.13;;;3.42;;
48621;SDS011;34421;48.944;9.460;2024-03-02T00:04:32;6.32;;;3.50;;
48621;SDS011;34421;48.944;9.460;2024-03-02T00:06:57;5.45;;;3.10;;
48621;SDS011;34421;48.944;9.460;2024-03-02T00:09:22;4.80;;;2.60;;
48621;SDS011;34421;48.944;9.460;2024-03-02T00:11:48;6.40;;;3.03;;
48621;SDS011;34421;48.944;9.460;2024-03-02T00:14:13;6.32;;;3.47;;
48621;SDS011;34421;48.944;9.460;2024-03-02T00:16:40;5.60;;;3.03;;
48621;SDS011;34421;48.944;9.460;2024-03-02T00:19:06;5.85;;;3.33;;
48621;SDS011;34421;48.944;9.460;2024-03-02T00:21:34;6.90;;;3.72;;
48621;SDS011;34421;48.944;9.460;2024-03-02T00:24:00;7.13;;;3.65;;
48621;SDS011;34421;48.944;9.460;2024-03-02T00:26:32;5.63;;;2.83;;
48621;SDS011;34421;48.944;9.460;2024-03-02T00:28:57;5.25;;;3.40;;
48621;SDS011;34421;48.944;9.460;2024-03-02T00:31:22;5.55;;;2.88;;
48621;SDS011;34421;48.944;9.460;2024-03-02T00:33:48;7.03;;;3.70;;
48621;SDS011;34421;48.944;9.460;2024-03-02T00:36:15;4.82;;;2.85;;
48621;SDS011;34421;48.944;9.460;2024-03-02T00:38:49;4.88;;;2.67;;
48621;SDS011;34421;48.944;9.460;2024-03-02T00:41:16;4.65;;;3.08;;
48621;SDS011;34421;48.944;9.460;2024-03-02T00:43:47;5.25;;;2.90;;
48621;SDS011;34421;48.944;9.460;2024-03-02T00:46:21;7.03;;;3.65;;
48621;SDS011;34421;48.944;9.460;2024-03-02T00:48:51;5.60;;;3.05;;
48621;SDS011;34421;48.944;9.460;2024-03-02T00:51:21;6.75;;;3.47;;
48621;SDS011;34421;48.944;9.460;2024-03-02T00:53:48;5.50;;;3.10;;
48621;SDS011;34421;48.944;9.460;2024-03-02T00:56:14;5.88;;;3.55;;
48621;SDS011;34421;48.944;9.460;2024-03-02T00:58:39;5.65;;;3.63;;
48621;SDS011;34421;48.944;9.460;2024-03-02T01:01:05;4.85;;;3.17;;
48621;SDS011;34421;48.944;9.460;2024-03-02T01:03:31;5.97;;;3.65;;
48621;SDS011;34421;48.944;9.460;2024-03-02T01:05:57;6.63;;;3.67;;
48621;SDS011;34421;48.944;9.460;2024-03-02T01:08:23;6.20;;;3.60;;
48621;SDS011;34421;48.944;9.460;2024-03-02T01:10:48;6.43;;;3.83;;
48621;SDS011;34421;48.944;9.460;2024-03-02T01:13:14;7.57;;;3.67;;
48621;SDS011;34421;48.944;9.460;2024-03-02T01:15:39;5.70;;;2.92;;
48621;SDS011;34421;48.944;9.460;2024-03-02T01:18:05;5.82;;;3.17;;
48621;SDS011;34421;48.944;9.460;2024-03-02T01:20:30;8.35;;;3.72;;
48621;SDS011;34421;48.944;9.460;2024-03-02T01:22:56;0.00;;;0.00;;
48621;SDS011;34421;48.944;9.460;2024-03-02T01:25:21;5.45;;;3.47;;
48621;SDS011;34421;48.944;9.460;2024-03-02T01:27:46;6.50;;;3.30;;
48621;SDS011;34421;48.944;9.460;2024-03-02T01:30:12;7.28;;;3.30;;
48621;SDS011;34421;48.944;9.460;2024-03-02T01:32:37;5.55;;;3.00;;
48621;SDS011;34421;48.944;9.460;2024-03-02T01:35:03;4.78;;;2.80;;
48621;SDS011;34421;48.944;9.460;2024-03-02T01:37:29;5.05;;;3.00;;
48621;SDS011;34421;48.944;9.460;2024-03-02T01:39:55;6.00;;;3.70;;
48621;SDS011;34421;48.944;9.460;2024-03-02T01:42:20;6.80;;;4.00;;
48621;SDS011;34421;48.944;9.460;2024-03-02T01:44:45;6.53;;;4.47;;
48621;SDS011;34421;48.944;9.460;2024-03-02T01:47:11;6.03;;;3.53;;
48621;SDS011;34421;48.944;9.460;2024-03-02T01:49:36;5.97;;;3.45;;
48621;SDS011;34421;48.944;9.460;2024-03-02T01:52:03;8.60;;;4.93;;
48621;SDS011;34421;48.944;9.460;2024-03-02T01:54:29;7.88;;;4.72;;
48621;SDS011;34421;48.944;9.460;2024-03-02T01:56:54;8.15;;;4.45;;
48621;SDS011;34421;48.944;9.460;2024-03-02T01:59:20;7.55;;;4.60;;
48621;SDS011;34421;48.944;9.460;2024-03-02T02:01:45;7.82;;;5.03;;
48621;SDS011;34421;48.944;9.460;2024-03-02T02:04:10;7.50;;;4.47;;
48621;SDS011;34421;48.944;9.460;2024-03-02T02:06:36;6.22;;;3.67;;
48621;SDS011;34421;48.944;9.460;2024-03-02T02:09:01;7.18;;;3.63;;
48621;SDS011;34421;48.944;9.460;2024-03-02T02:11:26;6.07;;;3.38;;
48621;SDS011;34421;48.944;9.460;2024-03-02T02:13:52;6.70;;;4.05;;
48621;SDS011;34421;48.944;9.460;2024-03-02T02:16:20;7.18;;;4.05;;
48621;SDS011;34421;48.944;9.460;2024-03-02T02:18:45;5.75;;;3.28;;
48621;SDS011;34421;48.944;9.460;2024-03-02T02:21:11;5.75;;;3.92;;
48621;SDS011;34421;48.944;9.460;2024-03-02T02:23:36;7.07;;;3.72;;
48621;SDS011;34421;48.944;9.460;2024-03-02T02:26:01;6.28;;;3.40;;
48621;SDS011;34421;48.944;9.460;2024-03-02T02:28:27;5.97;;;3.83;;
48621;SDS011;34421;48.944;9.460;2024-03-02T02:30:54;6.43;;;3.58;;
48621;SDS011;34421;48.944;9.460;2024-03-02T02:33:21;7.53;;;3.47;;
48621;SDS011;34421;48.944;9.460;2024-03-02T02:35:46;6.05;;;3.85;;
48621;SDS011;34421;48.944;9.460;2024-03-02T02:38:11;7.53;;;4.03;;
48621;SDS011;34421;48.944;9.460;2024-03-02T02:40:37;5.45;;;3.00;;
48621;SDS011;34421;48.944;9.460;2024-03-02T02:43:02;4.82;;;2.85;;
48621;SDS011;34421;48.944;9.460;2024-03-02T02:45:27;5.57;;;2.75;;
48621;SDS011;34421;48.944;9.460;2024-03-02T02:47:53;5.85;;;2.60;;
48621;SDS011;34421;48.944;9.460;2024-03-02T02:50:18;5.25;;;2.95;;
48621;SDS011;34421;48.944;9.460;2024-03-02T02:52:43;5.18;;;2.60;;
48621;SDS011;34421;48.944;9.460;2024-03-02T02:55:10;6.88;;;3.35;;
48621;SDS011;34421;48.944;9.460;2024-03-02T02:57:37;6.45;;;3.97;;
48621;SDS011;34421;48.944;9.460;2024-03-02T03:00:11;6.22;;;3.40;;
48621;SDS011;34421;48.944;9.460;2024-03-02T03:02:42;6.60;;;2.53;;
48621;SDS011;34421;48.944;9.460;2024-03-02T03:05:10;6.38;;;3.40;;
48621;SDS011;34421;48.944;9.460;2024-03-02T03:07:36;5.57;;;3.00;;
48621;SDS011;34421;48.944;9.460;2024-03-02T03:10:03;6.45;;;3.33;;
48621;SDS011;34421;48.944;9.460;2024-03-02T03:12:29;5.05;;;2.72;;
48621;SDS011;34421;48.944;9.460;2024-03-02T03:14:56;6.07;;;3.17;;
48621;SDS011;34421;48.944;9.460;2024-03-02T03:17:21;4.45;;;2.63;;
48621;SDS011;34421;48.944;9.460;2024-03-02T03:19:47;7.20;;;3.25;;
48621;SDS011;34421;48.944;9.460;2024-03-02T03:22:12;5.57;;;3.33;;
48621;SDS011;34421;48.944;9.460;2024-03-02T03:24:38;4.68;;;2.83;;
48621;SDS011;34421;48.944;9.460;2024-03-02T03:27:03;5.55;;;3.13;;
48621;SDS011;34421;48.944;9.460;2024-03-02T03:29:29;5.20;;;2.75;;
48621;SDS011;34421;48.944;9.460;2024-03-02T03:31:54;5.60;;;3.08;;
48621;SDS011;34421;48.944;9.460;2024-03-02T03:34:19;5.65;;;3.33;;
48621;SDS011;34421;48.944;9.460;2024-03-02T03:36:44;6.28;;;3.00;;
48621;SDS011;34421;48.944;9.460;2024-03-02T03:39:10;5.15;;;3.45;;
48621;SDS011;34421;48.944;9.460;2024-03-02T03:41:35;5.55;;;2.72;;
48621;SDS011;34421;48.944;9.460;2024-03-02T03:44:00;6.45;;;3.30;;
48621;SDS011;34421;48.944;9.460;2024-03-02T03:46:26;6.65;;;3.95;;
48621;SDS011;34421;48.944;9.460;2024-03-02T03:48:51;6.28;;;3.40;;
48621;SDS011;34421;48.944;9.460;2024-03-02T03:51:16;7.63;;;4.20;;
48621;SDS011;34421;48.944;9.460;2024-03-02T03:53:42;6.82;;;3.88;;
48621;SDS011;34421;48.944;9.460;2024-03-02T03:56:07;6.35;;;3.70;;
48621;SDS011;34421;48.944;9.460;2024-03-02T03:58:32;7.32;;;4.47;;
48621;SDS011;34421;48.944;9.460;2024-03-02T04:00:58;6.05;;;3.50;;
48621;SDS011;34421;48.944;9.460;2024-03-02T04:03:23;8.95;;;4.07;;
48621;SDS011;34421;48.944;9.460;2024-03-02T04:05:49;6.47;;;3.83;;
48621;SDS011;34421;48.944;9.460;2024-03-02T04:08:15;9.30;;;4.05;;
48621;SDS011;34421;48.944;9.460;2024-03-02T04:10:40;5.63;;;3.55;;
48621;SDS011;34421;48.944;9.460;2024-03-02T04:13:07;7.35;;;3.72;;
48621;SDS011;34421;48.944;9.460;2024-03-02T04:15:32;6.65;;;3.53;;
48621;SDS011;34421;48.944;9.460;2024-03-02T04:17:57;6.75;;;3.47;;
48621;SDS011;34421;48.944;9.460;2024-03-02T04:20:23;6.10;;;3.55;;
48621;SDS011;34421;48.944;9.460;2024-03-02T04:22:48;5.75;;;3.35;;
48621;SDS011;34421;48.944;9.460;2024-03-02T04:25:13;7.05;;;3.88;;
48621;SDS011;34421;48.944;9.460;2024-03-02T04:27:39;6.75;;;3.42;;
48621;SDS011;34421;48.944;9.460;2024-03-02T04:30:04;6.97;;;4.00;;
48621;SDS011;34421;48.944;9.460;2024-03-02T04:32:30;8.68;;;5.07;;
48621;SDS011;34421;48.944;9.460;2024-03-02T04:34:56;7.40;;;4.65;;
48621;SDS011;34421;48.944;9.460;2024-03-02T04:37:22;6.68;;;3.60;;
48621;SDS011;34421;48.944;9.460;2024-03-02T04:39:47;32.13;;;30.58;;
48621;SDS011;34421;48.944;9.460;2024-03-02T04:42:12;7.10;;;3.72;;
48621;SDS011;34421;48.944;9.460;2024-03-02T04:44:38;6.32;;;3.25;;
48621;SDS011;34421;48.944;9.460;2024-03-02T04:47:03;5.22;;;2.85;;
48621;SDS011;34421;48.944;9.460;2024-03-02T04:49:29;7.80;;;4.82;;
48621;SDS011;34421;48.944;9.460;2024-03-02T04:51:55;8.30;;;4.30;;
48621;SDS011;34421;48.944;9.460;2024-03-02T04:54:21;6.28;;;3.55;;
48621;SDS011;34421;48.944;9.460;2024-03-02T04:56:47;8.88;;;4.03;;
48621;SDS011;34421;48.944;9.460;2024-03-02T04:59:15;9.07;;;4.10;;
48621;SDS011;34421;48.944;9.460;2024-03-02T05:01:42;7.68;;;3.97;;
48621;SDS011;34421;48.944;9.460;2024-03-02T05:04:07;7.38;;;4.30;;
48621;SDS011;34421;48.944;9.460;2024-03-02T05:06:33;7.88;;;4.22;;
48621;SDS011;34421;48.944;9.460;2024-03-02T05:08:58;6.78;;;3.30;;
48621;SDS011;34421;48.944;9.460;2024-03-02T05:11:24;7.18;;;3.88;;
48621;SDS011;34421;48.944;9.460;2024-03-02T05:14:15;7.85;;;4.13;;
48621;SDS011;34421;48.944;9.460;2024-03-02T05:16:40;6.75;;;3.53;;
48621;SDS011;34421;48.944;9.460;2024-03-02T05:19:06;6.95;;;3.78;;
48621;SDS011;34421;48.944;9.460;2024-03-02T05:21:32;8.65;;;4.38;;
48621;SDS011;34421;48.944;9.460;2024-03-02T05:23:58;5.15;;;3.00;;
48621;SDS011;34421;48.944;9.460;2024-03-02T05:26:24;6.00;;;3.13;;
48621;SDS011;34421;48.944;9.460;2024-03-02T05:28:49;5.43;;;2.90;;
48621;SDS011;34421;48.944;9.460;2024-03-02T05:31:15;5.88;;;3.42;;
48621;SDS011;34421;48.944;9.460;2024-03-02T05:33:41;5.75;;;3.08;;
48621;SDS011;34421;48.944;9.460;2024-03-02T05:36:07;8.70;;;4.28;;
48621;SDS011;34421;48.944;9.460;2024-03-02T05:38:35;6.97;;;3.75;;
48621;SDS011;34421;48.944;9.460;2024-03-02T05:41:01;7.60;;;4.10;;
48621;SDS011;34421;48.944;9.460;2024-03-02T05:43:26;7.82;;;4.07;;
48621;SDS011;34421;48.944;9.460;2024-03-02T05:45:52;6.43;;;3.85;;
48621;SDS011;34421;48.944;9.460;2024-03-02T05:48:17;7.38;;;3.72;;
48621;SDS011;34421;48.944;9.460;2024-03-02T05:50:42;7.30;;;3.53;;
48621;SDS011;34421;48.944;9.460;2024-03-02T05:53:08;6.65;;;3.03;;
48621;SDS011;34421;48.944;9.460;2024-03-02T05:55:33;7.50;;;3.38;;
48621;SDS011;34421;48.944;9.460;2024-03-02T05:57:58;5.28;;;2.90;;
48621;SDS011;34421;48.944;9.460;2024-03-02T06:00:42;8.18;;;3.88;;
48621;SDS011;34421;48.944;9.460;2024-03-02T06:03:07;6.72;;;3.50;;
48621;SDS011;34421;48.944;9.460;2024-03-02T06:05:34;7.28;;;3.58;;
48621;SDS011;34421;48.944;9.460;2024-03-02T06:07:59;9.35;;;4.63;;
48621;SDS011;34421;48.944;9.460;2024-03-02T06:10:25;7.57;;;3.63;;
48621;SDS011;34421;48.944;9.460;2024-03-02T06:12:50;6.43;;;3.75;;
48621;SDS011;34421;48.944;9.460;2024-03-02T06:15:15;13.23;;;12.15;;
48621;SDS011;34421;48.944;9.460;2024-03-02T06:17:42;7.25;;;4.10;;
48621;SDS011;34421;48.944;9.460;2024-03-02T06:20:07;7.50;;;3.47;;
48621;SDS011;34421;48.944;9.460;2024-03-02T06:22:33;7.15;;;3.35;;
48621;SDS011;34421;48.944;9.460;2024-03-02T06:24:58;7.53;;;3.42;;
48621;SDS011;34421;48.944;9.460;2024-03-02T06:27:24;8.00;;;3.88;;
48621;SDS011;34421;48.944;9.460;2024-03-02T06:29:49;7.35;;;3.80;;
48621;SDS011;34421;48.944;9.460;2024-03-02T06:32:14;6.80;;;3.90;;
48621;SDS011;34421;48.944;9.460;2024-03-02T06:34:39;8.35;;;4.25;;
48621;SDS011;34421;48.944;9.460;2024-03-02T06:37:05;7.68;;;4.05;;
48621;SDS011;34421;48.944;9.460;2024-03-02T06:39:30;6.05;;;3.22;;
48621;SDS011;34421;48.944;9.460;2024-03-02T06:41:56;7.57;;;3.63;;
48621;SDS011;34421;48.944;9.460;2024-03-02T06:44:21;7.00;;;3.28;;
48621;SDS011;34421;48.944;9.460;2024-03-02T06:46:46;4.85;;;2.97;;
48621;SDS011;34421;48.944;9.460;2024-03-02T06:49:12;5.55;;;3.17;;
48621;SDS011;34421;48.944;9.460;2024-03-02T06:51:37;8.82;;;3.88;;
48621;SDS011;34421;48.944;9.460;2024-03-02T06:54:02;8.02;;;4.00;;
48621;SDS011;34421;48.944;9.460;2024-03-02T06:56:28;7.78;;;3.42;;
48621;SDS011;34421;48.944;9.460;2024-03-02T06:58:53;6.65;;;3.38;;
48621;SDS011;34421;48.944;9.460;2024-03-02T07:01:19;6.20;;;3.15;;
48621;SDS011;34421;48.944;9.460;2024-03-02T07:03:45;7.22;;;3.80;;
48621;SDS011;34421;48.944;9.460;2024-03-02T07:06:10;5.82;;;3.35;;
48621;SDS011;34421;48.944;9.460;2024-03-02T07:08:36;5.18;;;3.17;;
48621;SDS011;34421;48.944;9.460;2024-03-02T07:11:01;6.38;;;3.15;;
48621;SDS011;34421;48.944;9.460;2024-03-02T07:13:26;5.70;;;2.92;;
48621;SDS011;34421;48.944;9.460;2024-03-02T07:15:52;5.15;;;2.38;;
48621;SDS011;34421;48.944;9.460;2024-03-02T07:18:37;5.60;;;3.25;;
48621;SDS011;34421;48.944;9.460;2024-03-02T07:21:09;6.63;;;3.33;;
48621;SDS011;34421;48.944;9.460;2024-03-02T07:23:35;6.03;;;3.72;;
48621;SDS011;34421;48.944;9.460;2024-03-02T07:26:01;6.18;;;2.72;;
48621;SDS011;34421;48.944;9.460;2024-03-02T07:28:27;5.25;;;2.80;;
48621;SDS011;34421;48.944;9.460;2024-03-02T07:31:02;5.30;;;2.45;;
48621;SDS011;34421;48.944;9.460;2024-03-02T07:33:29;8.07;;;3.58;;
48621;SDS011;34421;48.944;9.460;2024-03-02T07:35:55;6.28;;;3.20;;
48621;SDS011;34421;48.944;9.460;2024-03-02T07:38:21;3.92;;;2.20;;
48621;SDS011;34421;48.944;9.460;2024-03-02T07:40:47;6.75;;;3.22;;
48621;SDS011;34421;48.944;9.460;2024-03-02T07:43:16;6.47;;;3.03;;
48621;SDS011;34421;48.944;9.460;2024-03-02T07:45:42;6.25;;;3.67;;
48621;SDS011;34421;48.944;9.460;2024-03-02T07:48:07;5.47;;;2.72;;
48621;SDS011;34421;48.944;9.460;2024-03-02T07:50:32;4.82;;;2.60;;
48621;SDS011;34421;48.944;9.460;2024-03-02T07:53:00;5.97;;;3.00;;
48621;SDS011;34421;48.944;9.460;2024-03-02T07:55:28;5.82;;;3.42;;
48621;SDS011;34421;48.944;9.460;2024-03-02T07:57:54;5.95;;;3.00;;
48621;SDS011;34421;48.944;9.460;2024-03-02T08:00:20;7.20;;;3.67;;
48621;SDS011;34421;48.944;9.460;2024-03-02T08:02:45;6.10;;;3.65;;
48621;SDS011;34421;48.944;9.460;2024-03-02T08:05:10;6.03;;;3.10;;
48621;SDS011;34421;48.944;9.460;2024-03-02T08:07:36;7.30;;;4.22;;
48621;SDS011;34421;48.944;9.460;2024-03-02T08:10:01;6.60;;;3.47;;
48621;SDS011;34421;48.944;9.460;2024-03-02T08:12:27;6.05;;;3.40;;
48621;SDS011;34421;48.944;9.460;2024-03-02T08:14:52;6.53;;;3.35;;
48621;SDS011;34421;48.944;9.460;2024-03-02T08:17:17;6.70;;;3.53;;
48621;SDS011;34421;48.944;9.460;2024-03-02T08:19:43;5.80;;;3.50;;
48621;SDS011;34421;48.944;9.460;2024-03-02T08:22:09;7.90;;;4.13;;
48621;SDS011;34421;48.944;9.460;2024-03-02T08:24:35;5.82;;;3.20;;
48621;SDS011;34421;48.944;9.460;2024-03-02T08:27:02;8.13;;;4.47;;
48621;SDS011;34421;48.944;9.460;2024-03-02T08:29:28;6.57;;;3.78;;
48621;SDS011;34421;48.944;9.460;2024-03-02T08:31:53;7.53;;;3.63;;
48621;SDS011;34421;48.944;9.460;2024-03-02T08:34:19;4.75;;;2.40;;
48621;SDS011;34421;48.944;9.460;2024-03-02T08:36:45;4.93;;;2.50;;
48621;SDS011;34421;48.944;9.460;2024-03-02T08:39:11;5.10;;;2.85;;
48621;SDS011;34421;48.944;9.460;2024-03-02T08:41:41;5.03;;;2.55;;
48621;SDS011;34421;48.944;9.460;2024-03-02T08:44:08;6.10;;;3.25;;
48621;SDS011;34421;48.944;9.460;2024-03-02T08:46:33;6.28;;;3.13;;
48621;SDS011;34421;48.944;9.460;2024-03-02T08:48:59;5.57;;;2.50;;
48621;SDS011;34421;48.944;9.460;2024-03-02T08:51:24;3.50;;;1.92;;
48621;SDS011;34421;48.944;9.460;2024-03-02T08:53:50;4.55;;;2.28;;
48621;SDS011;34421;48.944;9.460;2024-03-02T08:56:15;4.10;;;2.08;;
48621;SDS011;34421;48.944;9.460;2024-03-02T08:58:41;6.00;;;2.28;;
48621;SDS011;34421;48.944;9.460;2024-03-02T09:01:06;5.03;;;2.35;;
48621;SDS011;34421;48.944;9.460;2024-03-02T09:03:33;4.50;;;2.25;;
48621;SDS011;34421;48.944;9.460;2024-03-02T09:05:59;3.80;;;2.05;;
48621;SDS011;34421;48.944;9.460;2024-03-02T09:08:25;3.92;;;2.38;;
48621;SDS011;34421;48.944;9.460;2024-03-02T09:10:50;4.63;;;2.42;;
48621;SDS011;34421;48.944;9.460;2024-03-02T09:13:15;4.72;;;2.53;;
48621;SDS011;34421;48.944;9.460;2024-03-02T09:15:41;4.75;;;2.10;;
48621;SDS011;34421;48.944;9.460;2024-03-02T09:18:07;3.45;;;2.00;;
48621;SDS011;34421;48.944;9.460;2024-03-02T09:20:32;4.22;;;1.77;;
48621;SDS011;34421;48.944;9.460;2024-03-02T09:22:58;5.10;;;2.50;;
48621;SDS011;34421;48.944;9.460;2024-03-02T09:25:23;5.38;;;2.70;;
48621;SDS011;34421;48.944;9.460;2024-03-02T09:27:48;4.45;;;2.45;;
48621;SDS011;34421;48.944;9.460;2024-03-02T09:30:13;4.88;;;2.67;;
48621;SDS011;34421;48.944;9.460;2024-03-02T09:32:39;4.70;;;2.53;;
48621;SDS011;34421;48.944;9.460;2024-03-02T09:35:04;4.60;;;2.35;;
48621;SDS011;34421;48.944;9.460;2024-03-02T09:37:30;3.92;;;1.80;;
48621;SDS011;34421;48.944;9.460;2024-03-02T09:39:56;2.92;;;1.55;;
48621;SDS011;34421;48.944;9.460;2024-03-02T09:42:21;2.60;;;0.88;;
48621;SDS011;34421;48.944;9.460;2024-03-02T09:44:47;1.98;;;1.00;;
48621;SDS011;34421;48.944;9.460;2024-03-02T09:47:13;2.25;;;1.20;;
48621;SDS011;34421;48.944;9.460;2024-03-02T09:49:38;1.92;;;1.08;;
48621;SDS011;34421;48.944;9.460;2024-03-02T09:52:05;1.65;;;0.88;;
48621;SDS011;34421;48.944;9.460;2024-03-02T09:54:31;1.33;;;0.55;;
48621;SDS011;34421;48.944;9.460;2024-03-02T09:56:57;1.38;;;0.90;;
48621;SDS011;34421;48.944;9.460;2024-03-02T09:59:22;1.48;;;0.80;;
48621;SDS011;34421;48.944;9.460;2024-03-02T10:02:01;1.40;;;0.65;;
48621;SDS011;34421;48.944;9.460;2024-03-02T10:04:27;2.13;;;0.90;;
48621;SDS011;34421;48.944;9.460;2024-03-02T10:12:05;1.75;;;0.70;;
48621;SDS011;34421;48.944;9.460;2024-03-02T10:14:31;2.15;;;0.70;;
48621;SDS011;34421;48.944;9.460;2024-03-02T10:17:04;1.20;;;0.63;;
48621;SDS011;34421;48.944;9.460;2024-03-02T10:19:32;1.15;;;0.57;;
48621;SDS011;34421;48.944;9.460;2024-03-02T10:21:59;1.30;;;0.55;;
48621;SDS011;34421;48.944;9.460;2024-03-02T10:24:26;1.38;;;0.70;;
48621;SDS011;34421;48.944;9.460;2024-03-02T10:26:51;1.60;;;0.65;;
48621;SDS011;34421;48.944;9.460;2024-03-02T10:29:18;1.42;;;0.50;;
48621;SDS011;34421;48.944;9.460;2024-03-02T10:31:43;1.48;;;0.60;;
48621;SDS011;34421;48.944;9.460;2024-03-02T10:34:13;2.20;;;0.68;;
48621;SDS011;34421;48.944;9.460;2024-03-02T10:36:42;1.33;;;0.50;;
48621;SDS011;34421;48.944;9.460;2024-03-02T10:39:09;1.08;;;0.43;;
48621;SDS011;34421;48.944;9.460;2024-03-02T10:41:36;1.60;;;0.80;;
48621;SDS011;34421;48.944;9.460;2024-03-02T10:44:03;0.80;;;0.40;;
48621;SDS011;34421;48.944;9.460;2024-03-02T10:46:30;0.75;;;0.45;;
48621;SDS011;34421;48.944;9.460;2024-03-02T10:48:56;1.50;;;0.40;;
48621;SDS011;34421;48.944;9.460;2024-03-02T10:51:25;1.23;;;0.70;;
48621;SDS011;34421;48.944;9.460;2024-03-02T10:53:56;0.63;;;0.32;;
48621;SDS011;34421;48.944;9.460;2024-03-02T10:56:27;1.17;;;0.50;;
48621;SDS011;34421;48.944;9.460;2024-03-02T10:59:12;1.90;;;0.80;;
48621;SDS011;34421;48.944;9.460;2024-03-02T11:01:47;2.10;;;0.60;;
48621;SDS011;34421;48.944;9.460;2024-03-02T11:04:16;0.90;;;0.40;;
48621;SDS011;34421;48.944;9.460;2024-03-02T11:06:48;0.80;;;0.45;;
48621;SDS011;34421;48.944;9.460;2024-03-02T11:09:15;1.02;;;0.47;;
48621;SDS011;34421;48.944;9.460;2024-03-02T11:11:43;0.55;;;0.25;;
48621;SDS011;34421;48.944;9.460;2024-03-02T11:14:13;0.40;;;0.20;;
48621;SDS011;34421;48.944;9.460;2024-03-02T11:16:41;1.17;;;0.68;;
48621;SDS011;34421;48.944;9.460;2024-03-02T11:19:13;0.77;;;0.40;;
48621;SDS011;34421;48.944;9.460;2024-03-02T11:21:40;0.57;;;0.30;;
48621;SDS011;34421;48.944;9.460;2024-03-02T11:26:46;1.92;;;0.40;;
48621;SDS011;34421;48.944;9.460;2024-03-02T11:29:42;0.55;;;0.20;;
48621;SDS011;34421;48.944;9.460;2024-03-02T11:32:04;0.57;;;0.30;;
48621;SDS011;34421;48.944;9.460;2024-03-02T11:34:31;0.28;;;0.20;;
48621;SDS011;34421;48.944;9.460;2024-03-02T11:36:58;1.02;;;0.35;;
48621;SDS011;34421;48.944;9.460;2024-03-02T11:39:25;0.60;;;0.30;;
48621;SDS011;34421;48.944;9.460;2024-03-02T11:41:51;0.60;;;0.40;;
48621;SDS011;34421;48.944;9.460;2024-03-02T11:44:16;0.60;;;0.20;;
48621;SDS011;34421;48.944;9.460;2024-03-02T11:46:44;0.63;;;0.20;;
48621;SDS011;34421;48.944;9.460;2024-03-02T11:49:13;1.25;;;0.40;;
48621;SDS011;34421;48.944;9.460;2024-03-02T11:51:39;0.10;;;0.10;;
48621;SDS011;34421;48.944;9.460;2024-03-02T11:54:18;0.50;;;0.20;;
48621;SDS011;34421;48.944;9.460;2024-03-02T11:56:43;0.60;;;0.20;;
48621;SDS011;34421;48.944;9.460;2024-03-02T11:59:09;0.82;;;0.28;;
48621;SDS011;34421;48.944;9.460;2024-03-02T12:01:34;0.73;;;0.30;;
48621;SDS011;34421;48.944;9.460;2024-03-02T12:04:00;0.77;;;0.30;;
48621;SDS011;34421;48.944;9.460;2024-03-02T12:06:26;0.52;;;0.30;;
48621;SDS011;34421;48.944;9.460;2024-03-02T12:08:53;0.60;;;0.22;;
48621;SDS011;34421;48.944;9.460;2024-03-02T12:11:20;0.98;;;0.32;;
48621;SDS011;34421;48.944;9.460;2024-03-02T12:13:51;0.43;;;0.30;;
48621;SDS011;34421;48.944;9.460;2024-03-02T12:16:23;1.00;;;0.40;;
48621;SDS011;34421;48.944;9.460;2024-03-02T12:18:49;0.93;;;0.30;;
48621;SDS011;34421;48.944;9.460;2024-03-02T12:21:14;1.08;;;0.45;;
48621;SDS011;34421;48.944;9.460;2024-03-02T12:23:40;0.60;;;0.30;;
48621;SDS011;34421;48.944;9.460;2024-03-02T12:26:05;0.25;;;0.17;;
48621;SDS011;34421;48.944;9.460;2024-03-02T12:28:32;0.70;;;0.30;;
48621;SDS011;34421;48.944;9.460;2024-03-02T12:30:58;0.50;;;0.30;;
48621;SDS011;34421;48.944;9.460;2024-03-02T12:33:24;0.20;;;0.13;;
48621;SDS011;34421;48.944;9.460;2024-03-02T12:35:49;0.32;;;0.17;;
48621;SDS011;34421;48.944;9.460;2024-03-02T12:38:14;0.43;;;0.22;;
48621;SDS011;34421;48.944;9.460;2024-03-02T12:40:40;0.93;;;0.40;;
48621;SDS011;34421;48.944;9.460;2024-03-02T12:43:05;2.38;;;0.80;;
48621;SDS011;34421;48.944;9.460;2024-03-02T12:45:31;0.47;;;0.15;;
48621;SDS011;34421;48.944;9.460;2024-03-02T12:47:57;0.50;;;0.20;;
48621;SDS011;34421;48.944;9.460;2024-03-02T12:50:25;0.65;;;0.30;;
48621;SDS011;34421;48.944;9.460;2024-03-02T12:52:53;0.73;;;0.30;;
48621;SDS011;34421;48.944;9.460;2024-03-02T12:55:20;0.55;;;0.20;;
48621;SDS011;34421;48.944;9.460;2024-03-02T12:57:50;1.20;;;0.50;;
48621;SDS011;34421;48.944;9.460;2024-03-02T13:00:17;1.42;;;0.50;;
48621;SDS011;34421;48.944;9.460;2024-03-02T13:02:45;2.75;;;0.98;;
48621;SDS011;34421;48.944;9.460;2024-03-02T13:05:11;2.70;;;1.15;;
48621;SDS011;34421;48.944;9.460;2024-03-02T13:07:37;0.60;;;0.45;;
48621;SDS011;34421;48.944;9.460;2024-03-02T13:10:03;2.40;;;0.75;;
48621;SDS011;34421;48.944;9.460;2024-03-02T13:12:29;1.25;;;0.25;;
48621;SDS011;34421;48.944;9.460;2024-03-02T13:14:55;2.05;;;0.70;;
48621;SDS011;34421;48.944;9.460;2024-03-02T13:17:23;2.75;;;0.60;;
48621;SDS011;34421;48.944;9.460;2024-03-02T13:22:23;1.10;;;0.57;;
48621;SDS011;34421;48.944;9.460;2024-03-02T13:24:50;1.25;;;0.50;;
48621;SDS011;34421;48.944;9.460;2024-03-02T13:27:16;3.55;;;1.60;;
48621;SDS011;34421;48.944;9.460;2024-03-02T13:29:44;4.90;;;1.98;;
48621;SDS011;34421;48.944;9.460;2024-03-02T13:32:10;0.98;;;0.30;;
48621;SDS011;34421;48.944;9.460;2024-03-02T13:34:35;0.85;;;0.20;;
48621;SDS011;34421;48.944;9.460;2024-03-02T13:37:02;2.92;;;0.88;;
48621;SDS011;34421;48.944;9.460;2024-03-02T13:39:27;1.63;;;0.70;;
48621;SDS011;34421;48.944;9.460;2024-03-02T13:41:55;0.95;;;0.30;;
48621;SDS011;34421;48.944;9.460;2024-03-02T13:44:28;1.00;;;0.22;;
48621;SDS011;34421;48.944;9.460;2024-03-02T13:46:53;2.25;;;0.70;;
48621;SDS011;34421;48.944;9.460;2024-03-02T13:49:19;1.10;;;0.50;;
48621;SDS011;34421;48.944;9.460;2024-03-02T13:51:44;0.68;;;0.38;;
48621;SDS011;34421;48.944;9.460;2024-03-02T13:54:10;0.43;;;0.20;;
48621;SDS011;34421;48.944;9.460;2024-03-02T13:56:36;0.50;;;0.20;;
48621;SDS011;34421;48.944;9.460;2024-03-02T13:59:04;0.30;;;0.10;;
48621;SDS011;34421;48.944;9.460;2024-03-02T14:01:30;0.20;;;0.10;;
48621;SDS011;34421;48.944;9.460;2024-03-02T14:03:56;0.55;;;0.13;;
48621;SDS011;34421;48.944;9.460;2024-03-02T14:06:21;0.63;;;0.15;;
48621;SDS011;34421;48.944;9.460;2024-03-02T14:08:46;0.00;;;0.00;;
48621;SDS011;34421;48.944;9.460;2024-03-02T14:11:13;0.25;;;0.10;;
48621;SDS011;34421;48.944;9.460;2024-03-02T14:13:40;0.93;;;0.20;;
48621;SDS011;34421;48.944;9.460;2024-03-02T14:16:12;0.55;;;0.25;;
48621;SDS011;34421;48.944;9.460;2024-03-02T14:18:37;0.28;;;0.20;;
48621;SDS011;34421;48.944;9.460;2024-03-02T14:21:02;2.05;;;0.10;;
48621;SDS011;34421;48.944;9.460;2024-03-02T14:23:28;0.52;;;0.10;;
48621;SDS011;34421;48.944;9.460;2024-03-02T14:25:54;0.10;;;0.10;;
48621;SDS011;34421;48.944;9.460;2024-03-02T14:28:20;0.80;;;0.22;;
48621;SDS011;34421;48.944;9.460;2024-03-02T14:30:45;0.40;;;0.20;;
48621;SDS011;34421;48.944;9.460;2024-03-02T14:33:11;0.70;;;0.30;;
48621;SDS011;34421;48.944;9.460;2024-03-02T14:35:36;0.40;;;0.13;;
48621;SDS011;34421;48.944;9.460;2024-03-02T14:38:01;0.45;;;0.20;;
48621;SDS011;34421;48.944;9.460;2024-03-02T14:40:27;0.60;;;0.10;;
48621;SDS011;34421;48.944;9.460;2024-03-02T14:42:54;0.25;;;0.10;;
48621;SDS011;34421;48.944;9.460;2024-03-02T14:45:19;0.47;;;0.10;;
48621;SDS011;34421;48.944;9.460;2024-03-02T14:47:44;2.70;;;0.90;;
48621;SDS011;34421;48.944;9.460;2024-03-02T14:50:10;0.93;;;0.45;;
48621;SDS011;34421;48.944;9.460;2024-03-02T14:52:36;0.93;;;0.30;;
48621;SDS011;34421;48.944;9.460;2024-03-02T14:55:02;1.52;;;0.40;;